createdAt,value
2018-05-27T00:00:06.243Z,1013.28
2018-05-27T00:10:06.383Z,1013.17
2018-05-27T00:20:06.421Z,1013.07
2018-05-27T00:30:06.305Z,1012.95
2018-05-27T00:40:06.276Z,1013.03
2018-05-27T00:50:06.347Z,1012.98
2018-05-27T01:00:06.295Z,1012.89
2018-05-27T01:10:06.302Z,1012.9
2018-05-27T01:20:06.365Z,1012.88
2018-05-27T01:30:06.271Z,1012.83
2018-05-27T01:40:06.457Z,1012.88
2018-05-27T01:50:06.308Z,1012.7
2018-05-27T02:00:06.371Z,1012.66
2018-05-27T02:10:06.337Z,1012.55
2018-05-27T02:20:06.289Z,1012.52
2018-05-27T02:30:06.361Z,1012.57
2018-05-27T02:40:06.319Z,1012.58
2018-05-27T02:50:07.089Z,1012.54
2018-05-27T03:00:06.349Z,1012.71
2018-05-27T03:10:06.286Z,1012.69
2018-05-27T03:20:06.364Z,1012.63
2018-05-27T03:30:06.328Z,1012.6
2018-05-27T03:40:06.284Z,1012.66
2018-05-27T03:50:06.356Z,1012.67
2018-05-27T04:00:06.318Z,1012.62
2018-05-27T04:10:06.266Z,1012.57
2018-05-27T04:20:06.352Z,1012.5
2018-05-27T04:30:06.329Z,1012.57
2018-05-27T04:40:06.372Z,1012.49
2018-05-27T04:50:06.335Z,1012.37
2018-05-27T05:00:06.272Z,1012.32
2018-05-27T05:10:06.357Z,1012.39
2018-05-27T05:20:06.323Z,1012.38
2018-05-27T05:30:06.380Z,1012.49
2018-05-27T05:40:07.146Z,1012.6
2018-05-27T05:50:06.291Z,1012.58
2018-05-27T06:00:06.362Z,1012.72
2018-05-27T06:10:06.321Z,1012.74
2018-05-27T06:20:06.301Z,1012.86
2018-05-27T06:30:06.326Z,1012.76
2018-05-27T06:40:06.288Z,1012.75
2018-05-27T06:50:06.355Z,1012.67
2018-05-27T07:00:06.326Z,1012.67
2018-05-27T07:10:06.387Z,1012.65
2018-05-27T07:20:06.352Z,1012.59
2018-05-27T07:30:06.317Z,1012.6
2018-05-27T07:40:06.364Z,1012.49
2018-05-27T07:50:06.323Z,1012.4
2018-05-27T08:00:06.400Z,1012.41
2018-05-27T08:10:06.355Z,1012.36
2018-05-27T08:20:06.465Z,1012.21
2018-05-27T08:30:06.383Z,1012.17
2018-05-27T08:40:06.360Z,1012.14
2018-05-27T08:50:06.407Z,1012.06
2018-05-27T09:00:06.383Z,1011.84
2018-05-27T09:10:06.449Z,1011.98
2018-05-27T09:20:06.674Z,1011.96
2018-05-27T09:30:06.372Z,1011.94
2018-05-27T09:40:06.408Z,1012.04
2018-05-27T09:50:07.236Z,1011.91
2018-05-27T10:00:07.187Z,1011.84
2018-05-27T10:10:06.434Z,1011.79
2018-05-27T10:20:06.452Z,1011.76
2018-05-27T10:30:06.372Z,1011.61
2018-05-27T10:40:06.421Z,1011.51
2018-05-27T10:50:06.395Z,1011.43
2018-05-27T11:00:06.482Z,1011.32
2018-05-27T11:10:06.388Z,1011.16
2018-05-27T11:20:06.436Z,1011.05
2018-05-27T11:30:06.425Z,1011.04
2018-05-27T11:40:06.538Z,1010.94
2018-05-27T11:50:06.415Z,1010.88
2018-05-27T12:00:06.490Z,1010.81
2018-05-27T12:10:15.122Z,1010.84
2018-05-27T12:20:19.612Z,1010.63
2018-05-27T12:30:19.484Z,1010.58
2018-05-27T12:40:17.966Z,1010.47
2018-05-27T12:50:09.613Z,1010.57
2018-05-27T13:00:08.617Z,1010.44
2018-05-27T13:10:14.831Z,1010.23
2018-05-27T13:20:09.394Z,1009.98
2018-05-27T13:30:06.420Z,1009.85
2018-05-27T13:40:06.485Z,1009.98
2018-05-27T13:50:06.456Z,1009.92
2018-05-27T14:00:06.576Z,1009.98
2018-05-27T14:10:06.553Z,1009.81
2018-05-27T14:20:06.412Z,1009.68
2018-05-27T14:30:06.472Z,1009.67
2018-05-27T14:40:07.566Z,1009.67
2018-05-27T14:50:06.504Z,1009.77
2018-05-27T15:00:06.496Z,1009.77
2018-05-27T15:10:06.428Z,1009.83
2018-05-27T15:20:06.583Z,1010.27
2018-05-27T15:30:06.431Z,1010.39
2018-05-27T15:40:06.569Z,1010.29
2018-05-27T15:50:06.873Z,1010.23
2018-05-27T16:00:06.594Z,1010.08
2018-05-27T16:10:07.313Z,1010.01
2018-05-27T16:20:06.494Z,1009.89
2018-05-27T16:30:06.516Z,1010.05
2018-05-27T16:40:06.482Z,1010.25
2018-05-27T16:50:06.570Z,1010.29
2018-05-27T17:00:06.519Z,1010.24
2018-05-27T17:10:06.485Z,1010.24
2018-05-27T17:20:06.549Z,1010.05
2018-05-27T17:30:06.501Z,1009.78
2018-05-27T17:40:06.557Z,1009.58
2018-05-27T17:50:07.318Z,1009.36
2018-05-27T18:00:06.543Z,1009.34
2018-05-27T18:10:06.517Z,1009.58
2018-05-27T18:20:06.499Z,1009.91
2018-05-27T18:30:06.535Z,1010.09
2018-05-27T18:40:06.480Z,1010.36
2018-05-27T18:50:06.557Z,1010.35
2018-05-27T19:00:06.491Z,1010.36
2018-05-27T19:10:06.567Z,1010.53
2018-05-27T19:20:06.518Z,1010.59
2018-05-27T19:30:06.603Z,1010.49
2018-05-27T19:40:06.709Z,1010.66
2018-05-27T19:50:06.541Z,1010.77
2018-05-27T20:00:06.605Z,1010.77
2018-05-27T20:10:06.543Z,1010.64
2018-05-27T20:20:07.049Z,1010.53
2018-05-27T20:30:06.550Z,1010.38
2018-05-27T20:40:06.710Z,1010.32
2018-05-27T20:50:06.548Z,1010.25
2018-05-27T21:00:06.598Z,1010.42
2018-05-27T21:10:06.598Z,1010.51
2018-05-27T21:20:06.721Z,1010.44
2018-05-27T21:30:06.783Z,1010.43
2018-05-27T21:40:07.566Z,1010.59
2018-05-27T21:50:06.492Z,1010.69
2018-05-27T22:00:09.076Z,1010.68
2018-05-27T22:10:10.154Z,1010.72
2018-05-27T22:20:06.738Z,1010.81
2018-05-27T22:30:06.507Z,1010.68
2018-05-27T22:40:06.564Z,1010.62
2018-05-27T22:50:06.548Z,1010.68
2018-05-27T23:00:06.704Z,1010.51
2018-05-27T23:10:06.546Z,1010.38
2018-05-27T23:20:06.600Z,1010.45
2018-05-27T23:30:06.556Z,1010.47
2018-05-27T23:40:06.565Z,1010.37
2018-05-27T23:50:06.577Z,1010.42
